sensor_id;sensor_type;location;lat;lon;timestamp;P1;durP1;ratioP1;P2;durP2;ratioP2
44078;SDS011;29744;49.078;12.878;2023-12-20T00:03:09;0.90;;;0.60;;
44078;SDS011;29744;49.078;12.878;2023-12-20T00:08:09;1.20;;;0.60;;
44078;SDS011;29744;49.078;12.878;2023-12-20T00:13:10;0.75;;;0.70;;
44078;SDS011;29744;49.078;12.878;2023-12-20T00:18:11;1.23;;;0.70;;
44078;SDS011;29744;49.078;12.878;2023-12-20T00:23:11;1.05;;;0.68;;
44078;SDS011;29744;49.078;12.878;2023-12-20T00:28:11;0.65;;;0.60;;
44078;SDS011;29744;49.078;12.878;2023-12-20T00:33:12;0.68;;;0.68;;
44078;SDS011;29744;49.078;12.878;2023-12-20T00:38:12;1.10;;;0.70;;
44078;SDS011;29744;49.078;12.878;2023-12-20T00:43:12;0.75;;;0.55;;
44078;SDS011;29744;49.078;12.878;2023-12-20T00:48:13;1.17;;;0.70;;
44078;SDS011;29744;49.078;12.878;2023-12-20T00:53:13;1.35;;;0.80;;
44078;SDS011;29744;49.078;12.878;2023-12-20T00:58:13;1.10;;;0.80;;
44078;SDS011;29744;49.078;12.878;2023-12-20T01:03:15;0.60;;;0.60;;
44078;SDS011;29744;49.078;12.878;2023-12-20T01:08:15;1.13;;;0.70;;
44078;SDS011;29744;49.078;12.878;2023-12-20T01:13:15;1.13;;;0.77;;
44078;SDS011;29744;49.078;12.878;2023-12-20T01:18:16;1.20;;;0.68;;
44078;SDS011;29744;49.078;12.878;2023-12-20T01:23:16;0.77;;;0.57;;
44078;SDS011;29744;49.078;12.878;2023-12-20T01:28:16;1.02;;;0.63;;
44078;SDS011;29744;49.078;12.878;2023-12-20T01:33:17;1.23;;;0.80;;
44078;SDS011;29744;49.078;12.878;2023-12-20T01:38:17;1.33;;;0.73;;
44078;SDS011;29744;49.078;12.878;2023-12-20T01:43:20;0.70;;;0.60;;
44078;SDS011;29744;49.078;12.878;2023-12-20T01:48:20;0.80;;;0.70;;
44078;SDS011;29744;49.078;12.878;2023-12-20T01:53:21;1.10;;;0.65;;
44078;SDS011;29744;49.078;12.878;2023-12-20T01:58:25;1.30;;;0.70;;
44078;SDS011;29744;49.078;12.878;2023-12-20T02:03:26;1.17;;;0.70;;
44078;SDS011;29744;49.078;12.878;2023-12-20T02:08:27;1.05;;;0.70;;
44078;SDS011;29744;49.078;12.878;2023-12-20T02:13:27;0.90;;;0.60;;
44078;SDS011;29744;49.078;12.878;2023-12-20T02:18:27;0.80;;;0.70;;
44078;SDS011;29744;49.078;12.878;2023-12-20T02:23:28;0.75;;;0.60;;
44078;SDS011;29744;49.078;12.878;2023-12-20T02:28:28;0.98;;;0.70;;
44078;SDS011;29744;49.078;12.878;2023-12-20T02:33:29;0.85;;;0.70;;
44078;SDS011;29744;49.078;12.878;2023-12-20T02:38:29;1.10;;;0.80;;
44078;SDS011;29744;49.078;12.878;2023-12-20T02:43:30;1.15;;;0.77;;
44078;SDS011;29744;49.078;12.878;2023-12-20T02:48:30;0.80;;;0.68;;
44078;SDS011;29744;49.078;12.878;2023-12-20T02:53:30;1.26;;;0.68;;
44078;SDS011;29744;49.078;12.878;2023-12-20T02:58:31;0.95;;;0.80;;
44078;SDS011;29744;49.078;12.878;2023-12-20T03:03:32;0.90;;;0.70;;
44078;SDS011;29744;49.078;12.878;2023-12-20T03:08:32;0.93;;;0.70;;
44078;SDS011;29744;49.078;12.878;2023-12-20T03:13:32;0.88;;;0.60;;
44078;SDS011;29744;49.078;12.878;2023-12-20T03:18:33;1.00;;;0.70;;
44078;SDS011;29744;49.078;12.878;2023-12-20T03:23:33;1.10;;;0.70;;
44078;SDS011;29744;49.078;12.878;2023-12-20T03:28:33;0.93;;;0.68;;
44078;SDS011;29744;49.078;12.878;2023-12-20T03:33:34;0.90;;;0.70;;
44078;SDS011;29744;49.078;12.878;2023-12-20T03:38:34;1.25;;;0.70;;
44078;SDS011;29744;49.078;12.878;2023-12-20T03:43:34;0.80;;;0.60;;
44078;SDS011;29744;49.078;12.878;2023-12-20T03:48:35;0.75;;;0.63;;
44078;SDS011;29744;49.078;12.878;2023-12-20T03:53:35;0.82;;;0.70;;
44078;SDS011;29744;49.078;12.878;2023-12-20T03:58:35;0.90;;;0.50;;
44078;SDS011;29744;49.078;12.878;2023-12-20T04:03:36;0.68;;;0.57;;
44078;SDS011;29744;49.078;12.878;2023-12-20T04:08:36;0.82;;;0.64;;
44078;SDS011;29744;49.078;12.878;2023-12-20T04:13:36;1.10;;;0.63;;
44078;SDS011;29744;49.078;12.878;2023-12-20T04:18:37;0.90;;;0.60;;
44078;SDS011;29744;49.078;12.878;2023-12-20T04:23:37;1.00;;;0.70;;
44078;SDS011;29744;49.078;12.878;2023-12-20T04:28:37;0.98;;;0.60;;
44078;SDS011;29744;49.078;12.878;2023-12-20T04:33:38;1.25;;;0.70;;
44078;SDS011;29744;49.078;12.878;2023-12-20T04:38:38;0.85;;;0.73;;
44078;SDS011;29744;49.078;12.878;2023-12-20T04:43:38;0.68;;;0.60;;
44078;SDS011;29744;49.078;12.878;2023-12-20T04:48:39;1.40;;;0.80;;
44078;SDS011;29744;49.078;12.878;2023-12-20T04:53:39;0.86;;;0.70;;
44078;SDS011;29744;49.078;12.878;2023-12-20T04:58:39;0.80;;;0.63;;
44078;SDS011;29744;49.078;12.878;2023-12-20T05:03:39;0.75;;;0.50;;
44078;SDS011;29744;49.078;12.878;2023-12-20T05:08:40;0.77;;;0.55;;
44078;SDS011;29744;49.078;12.878;2023-12-20T05:13:40;0.63;;;0.50;;
44078;SDS011;29744;49.078;12.878;2023-12-20T05:18:41;0.93;;;0.60;;
44078;SDS011;29744;49.078;12.878;2023-12-20T05:23:41;0.90;;;0.60;;
44078;SDS011;29744;49.078;12.878;2023-12-20T05:28:42;0.57;;;0.40;;
44078;SDS011;29744;49.078;12.878;2023-12-20T05:33:42;1.00;;;0.60;;
44078;SDS011;29744;49.078;12.878;2023-12-20T05:38:42;0.80;;;0.50;;
44078;SDS011;29744;49.078;12.878;2023-12-20T05:43:43;0.70;;;0.52;;
44078;SDS011;29744;49.078;12.878;2023-12-20T05:48:43;0.70;;;0.57;;
44078;SDS011;29744;49.078;12.878;2023-12-20T05:53:44;0.95;;;0.60;;
44078;SDS011;29744;49.078;12.878;2023-12-20T05:58:44;0.75;;;0.60;;
44078;SDS011;29744;49.078;12.878;2023-12-20T06:03:44;0.90;;;0.47;;
44078;SDS011;29744;49.078;12.878;2023-12-20T06:08:47;0.85;;;0.50;;
44078;SDS011;29744;49.078;12.878;2023-12-20T06:13:48;0.40;;;0.35;;
44078;SDS011;29744;49.078;12.878;2023-12-20T06:18:49;0.73;;;0.52;;
44078;SDS011;29744;49.078;12.878;2023-12-20T06:23:49;1.00;;;0.60;;
44078;SDS011;29744;49.078;12.878;2023-12-20T06:28:49;0.68;;;0.50;;
44078;SDS011;29744;49.078;12.878;2023-12-20T06:33:49;0.60;;;0.50;;
44078;SDS011;29744;49.078;12.878;2023-12-20T06:38:57;0.63;;;0.43;;
44078;SDS011;29744;49.078;12.878;2023-12-20T06:43:58;0.88;;;0.55;;
44078;SDS011;29744;49.078;12.878;2023-12-20T06:48:58;0.85;;;0.43;;
44078;SDS011;29744;49.078;12.878;2023-12-20T06:53:58;0.43;;;0.38;;
44078;SDS011;29744;49.078;12.878;2023-12-20T06:59:00;0.40;;;0.40;;
44078;SDS011;29744;49.078;12.878;2023-12-20T07:04:00;0.40;;;0.40;;
44078;SDS011;29744;49.078;12.878;2023-12-20T07:09:00;0.70;;;0.55;;
44078;SDS011;29744;49.078;12.878;2023-12-20T07:14:01;0.90;;;0.57;;
44078;SDS011;29744;49.078;12.878;2023-12-20T07:19:01;0.93;;;0.50;;
44078;SDS011;29744;49.078;12.878;2023-12-20T07:24:01;0.40;;;0.40;;
44078;SDS011;29744;49.078;12.878;2023-12-20T07:29:01;0.50;;;0.50;;
44078;SDS011;29744;49.078;12.878;2023-12-20T07:34:03;0.63;;;0.47;;
44078;SDS011;29744;49.078;12.878;2023-12-20T07:39:03;1.30;;;0.47;;
44078;SDS011;29744;49.078;12.878;2023-12-20T07:44:04;0.80;;;0.55;;
44078;SDS011;29744;49.078;12.878;2023-12-20T07:49:04;0.60;;;0.43;;
44078;SDS011;29744;49.078;12.878;2023-12-20T07:54:05;0.40;;;0.40;;
44078;SDS011;29744;49.078;12.878;2023-12-20T07:59:05;0.70;;;0.50;;
44078;SDS011;29744;49.078;12.878;2023-12-20T08:04:05;0.55;;;0.50;;
44078;SDS011;29744;49.078;12.878;2023-12-20T08:09:06;0.40;;;0.40;;
44078;SDS011;29744;49.078;12.878;2023-12-20T08:14:06;4.40;;;0.75;;
44078;SDS011;29744;49.078;12.878;2023-12-20T08:19:06;1.30;;;0.60;;
44078;SDS011;29744;49.078;12.878;2023-12-20T08:24:07;1.02;;;0.57;;
44078;SDS011;29744;49.078;12.878;2023-12-20T08:29:08;1.85;;;0.77;;
44078;SDS011;29744;49.078;12.878;2023-12-20T08:34:08;1.00;;;0.60;;
44078;SDS011;29744;49.078;12.878;2023-12-20T08:39:08;3.17;;;0.85;;
44078;SDS011;29744;49.078;12.878;2023-12-20T08:44:09;3.78;;;0.90;;
44078;SDS011;29744;49.078;12.878;2023-12-20T08:49:09;5.60;;;0.88;;
44078;SDS011;29744;49.078;12.878;2023-12-20T08:54:10;2.92;;;0.90;;
44078;SDS011;29744;49.078;12.878;2023-12-20T08:59:10;0.80;;;0.60;;
44078;SDS011;29744;49.078;12.878;2023-12-20T09:04:12;1.67;;;0.65;;
44078;SDS011;29744;49.078;12.878;2023-12-20T09:09:12;1.15;;;0.77;;
44078;SDS011;29744;49.078;12.878;2023-12-20T09:14:14;1.83;;;0.80;;
44078;SDS011;29744;49.078;12.878;2023-12-20T09:19:14;2.58;;;0.90;;
44078;SDS011;29744;49.078;12.878;2023-12-20T09:24:15;2.25;;;0.90;;
44078;SDS011;29744;49.078;12.878;2023-12-20T09:29:15;4.30;;;1.23;;
44078;SDS011;29744;49.078;12.878;2023-12-20T09:34:17;3.63;;;1.20;;
44078;SDS011;29744;49.078;12.878;2023-12-20T09:39:18;6.30;;;1.70;;
44078;SDS011;29744;49.078;12.878;2023-12-20T09:44:19;3.78;;;1.27;;
44078;SDS011;29744;49.078;12.878;2023-12-20T09:49:20;4.55;;;1.60;;
44078;SDS011;29744;49.078;12.878;2023-12-20T09:54:21;5.60;;;1.67;;
44078;SDS011;29744;49.078;12.878;2023-12-20T09:59:22;4.57;;;1.50;;
44078;SDS011;29744;49.078;12.878;2023-12-20T10:04:23;3.83;;;1.35;;
44078;SDS011;29744;49.078;12.878;2023-12-20T10:09:23;3.65;;;1.30;;
44078;SDS011;29744;49.078;12.878;2023-12-20T10:14:24;5.95;;;1.58;;
44078;SDS011;29744;49.078;12.878;2023-12-20T10:19:25;3.75;;;1.17;;
44078;SDS011;29744;49.078;12.878;2023-12-20T10:24:25;4.00;;;1.30;;
44078;SDS011;29744;49.078;12.878;2023-12-20T10:29:31;3.25;;;1.52;;
44078;SDS011;29744;49.078;12.878;2023-12-20T10:34:32;3.67;;;1.48;;
44078;SDS011;29744;49.078;12.878;2023-12-20T10:39:33;3.40;;;1.10;;
44078;SDS011;29744;49.078;12.878;2023-12-20T10:44:33;3.22;;;1.23;;
44078;SDS011;29744;49.078;12.878;2023-12-20T10:49:34;2.95;;;1.20;;
44078;SDS011;29744;49.078;12.878;2023-12-20T10:54:36;3.65;;;1.30;;
44078;SDS011;29744;49.078;12.878;2023-12-20T10:59:37;4.30;;;1.40;;
44078;SDS011;29744;49.078;12.878;2023-12-20T11:15:16;1.42;;;0.80;;
44078;SDS011;29744;49.078;12.878;2023-12-20T11:20:17;3.75;;;1.08;;
44078;SDS011;29744;49.078;12.878;2023-12-20T11:25:17;3.22;;;1.32;;
44078;SDS011;29744;49.078;12.878;2023-12-20T11:30:17;2.65;;;1.17;;
44078;SDS011;29744;49.078;12.878;2023-12-20T11:35:20;3.20;;;0.85;;
44078;SDS011;29744;49.078;12.878;2023-12-20T11:40:20;1.85;;;0.95;;
44078;SDS011;29744;49.078;12.878;2023-12-20T11:45:24;2.55;;;1.00;;
44078;SDS011;29744;49.078;12.878;2023-12-20T11:50:25;2.92;;;1.10;;
44078;SDS011;29744;49.078;12.878;2023-12-20T11:55:25;1.42;;;0.65;;
44078;SDS011;29744;49.078;12.878;2023-12-20T12:00:26;2.90;;;0.80;;
44078;SDS011;29744;49.078;12.878;2023-12-20T12:05:26;1.88;;;0.77;;
44078;SDS011;29744;49.078;12.878;2023-12-20T12:10:27;1.73;;;0.60;;
44078;SDS011;29744;49.078;12.878;2023-12-20T12:15:27;1.83;;;0.68;;
44078;SDS011;29744;49.078;12.878;2023-12-20T12:20:27;1.20;;;0.60;;
44078;SDS011;29744;49.078;12.878;2023-12-20T12:25:31;1.80;;;0.70;;
44078;SDS011;29744;49.078;12.878;2023-12-20T12:30:34;1.77;;;0.70;;
44078;SDS011;29744;49.078;12.878;2023-12-20T12:35:35;2.20;;;0.68;;
44078;SDS011;29744;49.078;12.878;2023-12-20T12:40:36;1.00;;;0.50;;
44078;SDS011;29744;49.078;12.878;2023-12-20T12:45:36;0.82;;;0.55;;
44078;SDS011;29744;49.078;12.878;2023-12-20T12:50:36;0.95;;;0.60;;
44078;SDS011;29744;49.078;12.878;2023-12-20T12:55:37;0.80;;;0.60;;
44078;SDS011;29744;49.078;12.878;2023-12-20T13:00:37;1.27;;;0.60;;
44078;SDS011;29744;49.078;12.878;2023-12-20T13:05:37;1.42;;;0.70;;
44078;SDS011;29744;49.078;12.878;2023-12-20T13:10:38;1.17;;;0.43;;
44078;SDS011;29744;49.078;12.878;2023-12-20T13:15:38;1.33;;;0.63;;
44078;SDS011;29744;49.078;12.878;2023-12-20T13:20:39;1.45;;;0.60;;
44078;SDS011;29744;49.078;12.878;2023-12-20T13:25:40;1.15;;;0.60;;
44078;SDS011;29744;49.078;12.878;2023-12-20T13:30:41;1.58;;;0.60;;
44078;SDS011;29744;49.078;12.878;2023-12-20T13:35:41;1.42;;;0.65;;
44078;SDS011;29744;49.078;12.878;2023-12-20T13:40:42;1.60;;;0.85;;
44078;SDS011;29744;49.078;12.878;2023-12-20T13:45:42;1.77;;;0.73;;
44078;SDS011;29744;49.078;12.878;2023-12-20T13:50:42;1.65;;;0.70;;
44078;SDS011;29744;49.078;12.878;2023-12-20T13:55:43;0.95;;;0.55;;
44078;SDS011;29744;49.078;12.878;2023-12-20T14:00:43;1.60;;;0.70;;
44078;SDS011;29744;49.078;12.878;2023-12-20T14:05:43;1.58;;;0.68;;
44078;SDS011;29744;49.078;12.878;2023-12-20T14:10:44;0.68;;;0.50;;
44078;SDS011;29744;49.078;12.878;2023-12-20T14:15:44;1.77;;;0.60;;
44078;SDS011;29744;49.078;12.878;2023-12-20T14:20:44;1.45;;;0.80;;
44078;SDS011;29744;49.078;12.878;2023-12-20T14:25:47;1.02;;;0.65;;
44078;SDS011;29744;49.078;12.878;2023-12-20T14:30:48;1.70;;;0.63;;
44078;SDS011;29744;49.078;12.878;2023-12-20T14:35:49;0.93;;;0.40;;
44078;SDS011;29744;49.078;12.878;2023-12-20T14:40:49;0.98;;;0.40;;
44078;SDS011;29744;49.078;12.878;2023-12-20T14:45:50;1.52;;;0.73;;
44078;SDS011;29744;49.078;12.878;2023-12-20T14:50:51;0.80;;;0.50;;
44078;SDS011;29744;49.078;12.878;2023-12-20T14:55:52;2.92;;;0.73;;
44078;SDS011;29744;49.078;12.878;2023-12-20T15:00:52;1.52;;;0.73;;
44078;SDS011;29744;49.078;12.878;2023-12-20T15:05:53;1.04;;;0.60;;
44078;SDS011;29744;49.078;12.878;2023-12-20T15:10:53;2.15;;;0.77;;
44078;SDS011;29744;49.078;12.878;2023-12-20T15:15:53;2.50;;;0.70;;
44078;SDS011;29744;49.078;12.878;2023-12-20T15:20:54;1.63;;;0.80;;
44078;SDS011;29744;49.078;12.878;2023-12-20T15:25:54;1.83;;;0.68;;
44078;SDS011;29744;49.078;12.878;2023-12-20T15:30:55;2.28;;;0.75;;
44078;SDS011;29744;49.078;12.878;2023-12-20T15:35:56;3.20;;;0.93;;
44078;SDS011;29744;49.078;12.878;2023-12-20T15:40:56;1.65;;;0.63;;
44078;SDS011;29744;49.078;12.878;2023-12-20T15:45:57;2.17;;;0.60;;
44078;SDS011;29744;49.078;12.878;2023-12-20T15:50:57;2.70;;;0.93;;
44078;SDS011;29744;49.078;12.878;2023-12-20T15:55:58;2.95;;;0.70;;
44078;SDS011;29744;49.078;12.878;2023-12-20T16:00:59;1.20;;;0.60;;
44078;SDS011;29744;49.078;12.878;2023-12-20T16:05:59;2.08;;;0.60;;
44078;SDS011;29744;49.078;12.878;2023-12-20T16:10:59;1.70;;;0.70;;
44078;SDS011;29744;49.078;12.878;2023-12-20T16:16:03;1.30;;;0.60;;
44078;SDS011;29744;49.078;12.878;2023-12-20T16:21:04;1.33;;;0.63;;
44078;SDS011;29744;49.078;12.878;2023-12-20T16:26:04;2.53;;;0.80;;
44078;SDS011;29744;49.078;12.878;2023-12-20T16:31:05;1.27;;;0.65;;
44078;SDS011;29744;49.078;12.878;2023-12-20T16:36:05;0.95;;;0.45;;
44078;SDS011;29744;49.078;12.878;2023-12-20T16:41:06;1.42;;;0.50;;
44078;SDS011;29744;49.078;12.878;2023-12-20T16:46:06;1.33;;;0.77;;
44078;SDS011;29744;49.078;12.878;2023-12-20T16:51:08;1.13;;;0.40;;
44078;SDS011;29744;49.078;12.878;2023-12-20T16:56:11;1.98;;;0.60;;
44078;SDS011;29744;49.078;12.878;2023-12-20T17:01:11;1.83;;;0.60;;
44078;SDS011;29744;49.078;12.878;2023-12-20T17:06:13;0.90;;;0.50;;
44078;SDS011;29744;49.078;12.878;2023-12-20T17:11:14;1.55;;;0.52;;
44078;SDS011;29744;49.078;12.878;2023-12-20T17:16:14;1.33;;;0.70;;
44078;SDS011;29744;49.078;12.878;2023-12-20T17:21:15;0.80;;;0.40;;
44078;SDS011;29744;49.078;12.878;2023-12-20T17:26:16;0.70;;;0.43;;
44078;SDS011;29744;49.078;12.878;2023-12-20T17:31:16;0.98;;;0.50;;
44078;SDS011;29744;49.078;12.878;2023-12-20T17:36:17;0.73;;;0.40;;
44078;SDS011;29744;49.078;12.878;2023-12-20T17:41:17;0.90;;;0.40;;
44078;SDS011;29744;49.078;12.878;2023-12-20T17:46:17;1.58;;;0.50;;
44078;SDS011;29744;49.078;12.878;2023-12-20T17:51:18;0.88;;;0.40;;
44078;SDS011;29744;49.078;12.878;2023-12-20T17:56:18;1.70;;;0.50;;
44078;SDS011;29744;49.078;12.878;2023-12-20T18:01:18;1.20;;;0.57;;
44078;SDS011;29744;49.078;12.878;2023-12-20T18:06:19;0.90;;;0.47;;
44078;SDS011;29744;49.078;12.878;2023-12-20T18:11:19;1.00;;;0.40;;
44078;SDS011;29744;49.078;12.878;2023-12-20T18:16:19;1.23;;;0.43;;
44078;SDS011;29744;49.078;12.878;2023-12-20T18:21:20;0.40;;;0.30;;
44078;SDS011;29744;49.078;12.878;2023-12-20T18:26:20;1.00;;;0.50;;
44078;SDS011;29744;49.078;12.878;2023-12-20T18:31:20;0.57;;;0.30;;
44078;SDS011;29744;49.078;12.878;2023-12-20T18:36:21;0.70;;;0.40;;
44078;SDS011;29744;49.078;12.878;2023-12-20T18:41:21;1.25;;;0.57;;
44078;SDS011;29744;49.078;12.878;2023-12-20T18:46:22;1.50;;;0.60;;
44078;SDS011;29744;49.078;12.878;2023-12-20T18:51:24;1.00;;;0.40;;
44078;SDS011;29744;49.078;12.878;2023-12-20T18:56:24;0.45;;;0.30;;
44078;SDS011;29744;49.078;12.878;2023-12-20T19:01:25;0.60;;;0.30;;
44078;SDS011;29744;49.078;12.878;2023-12-20T19:06:25;0.85;;;0.40;;
44078;SDS011;29744;49.078;12.878;2023-12-20T19:11:25;1.05;;;0.47;;
44078;SDS011;29744;49.078;12.878;2023-12-20T19:16:26;1.20;;;0.47;;
44078;SDS011;29744;49.078;12.878;2023-12-20T19:21:26;0.63;;;0.32;;
44078;SDS011;29744;49.078;12.878;2023-12-20T19:26:26;0.60;;;0.40;;
44078;SDS011;29744;49.078;12.878;2023-12-20T19:31:27;0.65;;;0.40;;
44078;SDS011;29744;49.078;12.878;2023-12-20T19:36:27;0.62;;;0.32;;
44078;SDS011;29744;49.078;12.878;2023-12-20T19:41:27;0.73;;;0.30;;
44078;SDS011;29744;49.078;12.878;2023-12-20T19:46:28;0.77;;;0.30;;
44078;SDS011;29744;49.078;12.878;2023-12-20T19:51:29;0.75;;;0.40;;
44078;SDS011;29744;49.078;12.878;2023-12-20T19:56:29;0.50;;;0.40;;
44078;SDS011;29744;49.078;12.878;2023-12-20T20:01:30;0.50;;;0.30;;
44078;SDS011;29744;49.078;12.878;2023-12-20T20:06:30;0.43;;;0.30;;
44078;SDS011;29744;49.078;12.878;2023-12-20T20:11:30;0.85;;;0.40;;
44078;SDS011;29744;49.078;12.878;2023-12-20T20:16:30;0.50;;;0.28;;
44078;SDS011;29744;49.078;12.878;2023-12-20T20:21:31;0.73;;;0.30;;
44078;SDS011;29744;49.078;12.878;2023-12-20T20:26:31;0.50;;;0.35;;
44078;SDS011;29744;49.078;12.878;2023-12-20T20:31:31;0.70;;;0.30;;
44078;SDS011;29744;49.078;12.878;2023-12-20T20:36:34;0.68;;;0.40;;
44078;SDS011;29744;49.078;12.878;2023-12-20T20:41:34;0.88;;;0.35;;
44078;SDS011;29744;49.078;12.878;2023-12-20T20:46:34;0.88;;;0.30;;
44078;SDS011;29744;49.078;12.878;2023-12-20T20:51:35;0.40;;;0.30;;
44078;SDS011;29744;49.078;12.878;2023-12-20T20:56:35;0.47;;;0.30;;
44078;SDS011;29744;49.078;12.878;2023-12-20T21:01:35;0.82;;;0.40;;
44078;SDS011;29744;49.078;12.878;2023-12-20T21:06:36;0.40;;;0.20;;
44078;SDS011;29744;49.078;12.878;2023-12-20T21:11:36;0.30;;;0.30;;
44078;SDS011;29744;49.078;12.878;2023-12-20T21:16:37;0.30;;;0.30;;
44078;SDS011;29744;49.078;12.878;2023-12-20T21:21:38;0.43;;;0.22;;
44078;SDS011;29744;49.078;12.878;2023-12-20T21:26:39;0.28;;;0.28;;
44078;SDS011;29744;49.078;12.878;2023-12-20T21:31:39;0.75;;;0.50;;
44078;SDS011;29744;49.078;12.878;2023-12-20T21:36:39;0.45;;;0.22;;
44078;SDS011;29744;49.078;12.878;2023-12-20T21:41:42;0.40;;;0.30;;
44078;SDS011;29744;49.078;12.878;2023-12-20T21:46:43;0.47;;;0.30;;
44078;SDS011;29744;49.078;12.878;2023-12-20T21:51:44;0.28;;;0.28;;
44078;SDS011;29744;49.078;12.878;2023-12-20T21:56:44;0.45;;;0.20;;
44078;SDS011;29744;49.078;12.878;2023-12-20T22:01:44;0.30;;;0.20;;
44078;SDS011;29744;49.078;12.878;2023-12-20T22:06:45;0.68;;;0.40;;
44078;SDS011;29744;49.078;12.878;2023-12-20T22:11:45;0.25;;;0.20;;
44078;SDS011;29744;49.078;12.878;2023-12-20T22:16:45;0.50;;;0.30;;
44078;SDS011;29744;49.078;12.878;2023-12-20T22:21:46;0.40;;;0.35;;
44078;SDS011;29744;49.078;12.878;2023-12-20T22:26:46;0.45;;;0.30;;
44078;SDS011;29744;49.078;12.878;2023-12-20T22:31:46;0.35;;;0.30;;
44078;SDS011;29744;49.078;12.878;2023-12-20T22:36:47;0.73;;;0.35;;
44078;SDS011;29744;49.078;12.878;2023-12-20T22:41:48;0.20;;;0.17;;
44078;SDS011;29744;49.078;12.878;2023-12-20T22:46:48;0.30;;;0.30;;
44078;SDS011;29744;49.078;12.878;2023-12-20T22:51:49;0.60;;;0.30;;
44078;SDS011;29744;49.078;12.878;2023-12-20T22:56:49;0.65;;;0.30;;
44078;SDS011;29744;49.078;12.878;2023-12-20T23:01:54;0.65;;;0.35;;
44078;SDS011;29744;49.078;12.878;2023-12-20T23:06:54;0.80;;;0.45;;
44078;SDS011;29744;49.078;12.878;2023-12-20T23:11:54;0.32;;;0.30;;
44078;SDS011;29744;49.078;12.878;2023-12-20T23:16:55;0.43;;;0.30;;
44078;SDS011;29744;49.078;12.878;2023-12-20T23:21:55;0.30;;;0.20;;
44078;SDS011;29744;49.078;12.878;2023-12-20T23:26:56;0.80;;;0.60;;
44078;SDS011;29744;49.078;12.878;2023-12-20T23:31:57;0.24;;;0.20;;
44078;SDS011;29744;49.078;12.878;2023-12-20T23:36:57;0.20;;;0.20;;
44078;SDS011;29744;49.078;12.878;2023-12-20T23:41:57;0.20;;;0.20;;
44078;SDS011;29744;49.078;12.878;2023-12-20T23:46:58;0.50;;;0.20;;
44078;SDS011;29744;49.078;12.878;2023-12-20T23:51:58;0.20;;;0.20;;
44078;SDS011;29744;49.078;12.878;2023-12-20T23:56:58;0.40;;;0.20;;
